sensor_id;sensor_type;location;lat;lon;timestamp;pressure;altitude;pressure_sealevel;temperature;humidity
77469;BME280;68840;50.272;12.818;2023-11-21T00:02:05;95335;;;9.1;71.7
77469;BME280;68840;50.272;12.818;2023-11-21T00:04:07;95334;;;9.1;71.5
77469;BME280;68840;50.272;12.818;2023-11-21T00:06:08;95336;;;9.1;71.5
77469;BME280;68840;50.272;12.818;2023-11-21T00:08:05;95337;;;9.0;71.5
77469;BME280;68840;50.272;12.818;2023-11-21T00:10:06;95339;;;9.0;71.4
77469;BME280;68840;50.272;12.818;2023-11-21T00:12:06;95340;;;9.0;71.3
77469;BME280;68840;50.272;12.818;2023-11-21T00:14:05;95342;;;9.0;71.1
77469;BME280;68840;50.272;12.818;2023-11-21T00:16:05;95344;;;8.9;71.1
77469;BME280;68840;50.272;12.818;2023-11-21T00:18:05;95343;;;8.9;71.1
77469;BME280;68840;50.272;12.818;2023-11-21T00:20:07;95342;;;8.9;70.9
77469;BME280;68840;50.272;12.818;2023-11-21T00:22:06;95341;;;8.9;71.2
77469;BME280;68840;50.272;12.818;2023-11-21T00:24:05;95344;;;8.9;71.1
77469;BME280;68840;50.272;12.818;2023-11-21T00:26:05;95344;;;8.9;71.5
77469;BME280;68840;50.272;12.818;2023-11-21T00:28:05;95344;;;8.9;71.0
77469;BME280;68840;50.272;12.818;2023-11-21T00:30:06;95344;;;8.9;70.9
77469;BME280;68840;50.272;12.818;2023-11-21T00:32:06;95348;;;8.9;71.2
77469;BME280;68840;50.272;12.818;2023-11-21T00:34:05;95349;;;8.9;71.4
77469;BME280;68840;50.272;12.818;2023-11-21T00:36:09;95349;;;8.9;71.5
77469;BME280;68840;50.272;12.818;2023-11-21T00:38:05;95350;;;8.8;71.8
77469;BME280;68840;50.272;12.818;2023-11-21T00:40:06;95351;;;8.8;71.7
77469;BME280;68840;50.272;12.818;2023-11-21T00:42:06;95353;;;8.8;71.9
77469;BME280;68840;50.272;12.818;2023-11-21T00:44:06;95354;;;8.8;72.0
77469;BME280;68840;50.272;12.818;2023-11-21T00:46:07;95355;;;8.8;72.2
77469;BME280;68840;50.272;12.818;2023-11-21T00:48:05;95354;;;8.9;72.2
77469;BME280;68840;50.272;12.818;2023-11-21T00:50:06;95353;;;8.9;71.8
77469;BME280;68840;50.272;12.818;2023-11-21T00:52:06;95355;;;8.9;72.0
77469;BME280;68840;50.272;12.818;2023-11-21T00:54:06;95353;;;8.9;72.1
77469;BME280;68840;50.272;12.818;2023-11-21T00:56:06;95355;;;8.9;72.1
77469;BME280;68840;50.272;12.818;2023-11-21T00:58:06;95353;;;8.9;72.0
77469;BME280;68840;50.272;12.818;2023-11-21T01:00:07;95353;;;8.9;72.2
77469;BME280;68840;50.272;12.818;2023-11-21T01:02:05;95353;;;8.9;72.1
77469;BME280;68840;50.272;12.818;2023-11-21T01:04:06;95355;;;8.9;72.0
77469;BME280;68840;50.272;12.818;2023-11-21T01:06:07;95357;;;8.9;72.0
77469;BME280;68840;50.272;12.818;2023-11-21T01:08:05;95361;;;8.9;72.1
77469;BME280;68840;50.272;12.818;2023-11-21T01:10:07;95362;;;8.9;72.1
77469;BME280;68840;50.272;12.818;2023-11-21T01:12:06;95360;;;8.9;72.0
77469;BME280;68840;50.272;12.818;2023-11-21T01:14:06;95358;;;8.9;72.2
77469;BME280;68840;50.272;12.818;2023-11-21T01:16:06;95357;;;8.9;71.9
77469;BME280;68840;50.272;12.818;2023-11-21T01:18:05;95356;;;8.9;72.0
77469;BME280;68840;50.272;12.818;2023-11-21T01:20:11;95355;;;8.9;71.8
77469;BME280;68840;50.272;12.818;2023-11-21T01:22:05;95357;;;8.9;71.8
77469;BME280;68840;50.272;12.818;2023-11-21T01:24:07;95358;;;8.9;71.8
77469;BME280;68840;50.272;12.818;2023-11-21T01:26:05;95359;;;8.9;71.9
77469;BME280;68840;50.272;12.818;2023-11-21T01:28:05;95361;;;8.8;72.1
77469;BME280;68840;50.272;12.818;2023-11-21T01:30:07;95362;;;8.9;71.9
77469;BME280;68840;50.272;12.818;2023-11-21T01:32:07;95364;;;8.9;72.2
77469;BME280;68840;50.272;12.818;2023-11-21T01:34:05;95361;;;8.9;72.2
77469;BME280;68840;50.272;12.818;2023-11-21T01:36:05;95361;;;8.9;71.9
77469;BME280;68840;50.272;12.818;2023-11-21T01:38:08;95359;;;8.9;72.2
77469;BME280;68840;50.272;12.818;2023-11-21T01:40:11;95359;;;8.9;72.1
77469;BME280;68840;50.272;12.818;2023-11-21T01:42:06;95357;;;8.9;72.4
77469;BME280;68840;50.272;12.818;2023-11-21T01:44:07;95358;;;8.9;72.5
77469;BME280;68840;50.272;12.818;2023-11-21T01:46:06;95359;;;9.0;72.0
77469;BME280;68840;50.272;12.818;2023-11-21T01:48:06;95360;;;9.0;72.0
77469;BME280;68840;50.272;12.818;2023-11-21T01:50:07;95358;;;9.0;71.9
77469;BME280;68840;50.272;12.818;2023-11-21T01:52:06;95359;;;9.0;71.7
77469;BME280;68840;50.272;12.818;2023-11-21T01:54:06;95357;;;9.0;71.6
77469;BME280;68840;50.272;12.818;2023-11-21T01:56:07;95355;;;9.0;71.6
77469;BME280;68840;50.272;12.818;2023-11-21T01:58:07;95355;;;9.1;71.5
77469;BME280;68840;50.272;12.818;2023-11-21T02:00:15;95352;;;9.0;71.6
77469;BME280;68840;50.272;12.818;2023-11-21T02:02:06;95352;;;9.1;71.5
77469;BME280;68840;50.272;12.818;2023-11-21T02:04:08;95353;;;9.1;71.4
77469;BME280;68840;50.272;12.818;2023-11-21T02:06:05;95352;;;9.1;71.5
77469;BME280;68840;50.272;12.818;2023-11-21T02:08:05;95354;;;9.1;71.4
77469;BME280;68840;50.272;12.818;2023-11-21T02:10:06;95355;;;9.1;71.2
77469;BME280;68840;50.272;12.818;2023-11-21T02:12:05;95354;;;9.1;70.8
77469;BME280;68840;50.272;12.818;2023-11-21T02:14:07;95353;;;9.1;70.8
77469;BME280;68840;50.272;12.818;2023-11-21T02:16:06;95351;;;9.1;70.9
77469;BME280;68840;50.272;12.818;2023-11-21T02:18:06;95350;;;9.1;70.6
77469;BME280;68840;50.272;12.818;2023-11-21T02:20:06;95351;;;9.1;70.5
77469;BME280;68840;50.272;12.818;2023-11-21T02:22:06;95350;;;9.1;70.4
77469;BME280;68840;50.272;12.818;2023-11-21T02:24:06;95348;;;9.1;70.3
77469;BME280;68840;50.272;12.818;2023-11-21T02:26:05;95346;;;9.0;70.3
77469;BME280;68840;50.272;12.818;2023-11-21T02:28:06;95346;;;9.0;70.3
77469;BME280;68840;50.272;12.818;2023-11-21T02:30:07;95347;;;9.0;70.1
77469;BME280;68840;50.272;12.818;2023-11-21T02:32:05;95350;;;9.0;70.4
77469;BME280;68840;50.272;12.818;2023-11-21T02:34:05;95351;;;9.0;70.3
77469;BME280;68840;50.272;12.818;2023-11-21T02:36:05;95351;;;9.0;70.1
77469;BME280;68840;50.272;12.818;2023-11-21T02:38:06;95352;;;9.0;69.9
77469;BME280;68840;50.272;12.818;2023-11-21T02:40:08;95352;;;8.9;69.9
77469;BME280;68840;50.272;12.818;2023-11-21T02:42:05;95350;;;8.9;69.9
77469;BME280;68840;50.272;12.818;2023-11-21T02:44:06;95350;;;8.9;69.8
77469;BME280;68840;50.272;12.818;2023-11-21T02:46:05;95347;;;8.9;69.8
77469;BME280;68840;50.272;12.818;2023-11-21T02:48:06;95348;;;8.8;69.6
77469;BME280;68840;50.272;12.818;2023-11-21T02:50:07;95353;;;8.8;69.5
77469;BME280;68840;50.272;12.818;2023-11-21T02:52:05;95355;;;8.7;69.9
77469;BME280;68840;50.272;12.818;2023-11-21T02:54:06;95354;;;8.7;70.0
77469;BME280;68840;50.272;12.818;2023-11-21T02:56:05;95358;;;8.7;70.0
77469;BME280;68840;50.272;12.818;2023-11-21T02:58:06;95359;;;8.6;70.1
77469;BME280;68840;50.272;12.818;2023-11-21T03:00:08;95361;;;8.6;69.9
77469;BME280;68840;50.272;12.818;2023-11-21T03:02:08;95361;;;8.6;70.1
77469;BME280;68840;50.272;12.818;2023-11-21T03:04:06;95363;;;8.5;70.0
77469;BME280;68840;50.272;12.818;2023-11-21T03:06:06;95363;;;8.5;70.5
77469;BME280;68840;50.272;12.818;2023-11-21T03:08:05;95364;;;8.5;70.3
77469;BME280;68840;50.272;12.818;2023-11-21T03:10:06;95363;;;8.5;70.3
77469;BME280;68840;50.272;12.818;2023-11-21T03:12:05;95364;;;8.5;70.6
77469;BME280;68840;50.272;12.818;2023-11-21T03:14:05;95364;;;8.5;70.8
77469;BME280;68840;50.272;12.818;2023-11-21T03:16:06;95365;;;8.5;70.7
77469;BME280;68840;50.272;12.818;2023-11-21T03:18:05;95365;;;8.5;70.5
77469;BME280;68840;50.272;12.818;2023-11-21T03:20:06;95362;;;8.4;70.3
77469;BME280;68840;50.272;12.818;2023-11-21T03:22:05;95361;;;8.4;70.4
77469;BME280;68840;50.272;12.818;2023-11-21T03:24:07;95364;;;8.4;70.3
77469;BME280;68840;50.272;12.818;2023-11-21T03:26:05;95366;;;8.4;70.0
77469;BME280;68840;50.272;12.818;2023-11-21T03:28:05;95364;;;8.4;70.1
77469;BME280;68840;50.272;12.818;2023-11-21T03:30:09;95363;;;8.4;69.9
77469;BME280;68840;50.272;12.818;2023-11-21T03:32:07;95363;;;8.3;69.8
77469;BME280;68840;50.272;12.818;2023-11-21T03:34:06;95364;;;8.3;69.8
77469;BME280;68840;50.272;12.818;2023-11-21T03:36:08;95367;;;8.3;69.9
77469;BME280;68840;50.272;12.818;2023-11-21T03:38:05;95368;;;8.2;69.5
77469;BME280;68840;50.272;12.818;2023-11-21T03:40:08;95369;;;8.2;69.1
77469;BME280;68840;50.272;12.818;2023-11-21T03:42:05;95372;;;8.2;69.1
77469;BME280;68840;50.272;12.818;2023-11-21T03:44:05;95372;;;8.1;69.1
77469;BME280;68840;50.272;12.818;2023-11-21T03:46:05;95377;;;8.1;68.6
77469;BME280;68840;50.272;12.818;2023-11-21T03:48:05;95380;;;8.1;68.3
77469;BME280;68840;50.272;12.818;2023-11-21T03:50:05;95379;;;8.0;68.2
77469;BME280;68840;50.272;12.818;2023-11-21T03:52:06;95382;;;8.0;68.4
77469;BME280;68840;50.272;12.818;2023-11-21T03:54:05;95383;;;8.0;68.7
77469;BME280;68840;50.272;12.818;2023-11-21T03:56:06;95381;;;8.0;68.5
77469;BME280;68840;50.272;12.818;2023-11-21T03:58:05;95382;;;8.0;69.3
77469;BME280;68840;50.272;12.818;2023-11-21T04:00:08;95380;;;8.0;69.8
77469;BME280;68840;50.272;12.818;2023-11-21T04:02:05;95381;;;8.0;70.0
77469;BME280;68840;50.272;12.818;2023-11-21T04:04:05;95382;;;8.0;70.3
77469;BME280;68840;50.272;12.818;2023-11-21T04:06:06;95384;;;8.0;70.3
77469;BME280;68840;50.272;12.818;2023-11-21T04:08:05;95386;;;8.0;70.1
77469;BME280;68840;50.272;12.818;2023-11-21T04:10:08;95386;;;8.1;70.5
77469;BME280;68840;50.272;12.818;2023-11-21T04:12:06;95386;;;8.1;70.5
77469;BME280;68840;50.272;12.818;2023-11-21T04:14:05;95384;;;8.1;70.5
77469;BME280;68840;50.272;12.818;2023-11-21T04:16:06;95383;;;8.1;70.3
77469;BME280;68840;50.272;12.818;2023-11-21T04:18:05;95382;;;8.2;70.2
77469;BME280;68840;50.272;12.818;2023-11-21T04:20:09;95381;;;8.2;70.2
77469;BME280;68840;50.272;12.818;2023-11-21T04:22:05;95380;;;8.2;70.0
77469;BME280;68840;50.272;12.818;2023-11-21T04:24:06;95383;;;8.2;70.5
77469;BME280;68840;50.272;12.818;2023-11-21T04:26:05;95382;;;8.2;71.0
77469;BME280;68840;50.272;12.818;2023-11-21T04:28:05;95384;;;8.2;70.6
77469;BME280;68840;50.272;12.818;2023-11-21T04:30:06;95386;;;8.3;70.4
77469;BME280;68840;50.272;12.818;2023-11-21T04:32:06;95389;;;8.3;70.3
77469;BME280;68840;50.272;12.818;2023-11-21T04:34:05;95392;;;8.3;70.3
77469;BME280;68840;50.272;12.818;2023-11-21T04:36:05;95397;;;8.3;70.4
77469;BME280;68840;50.272;12.818;2023-11-21T04:38:05;95399;;;8.3;70.3
77469;BME280;68840;50.272;12.818;2023-11-21T04:40:06;95401;;;8.4;70.6
77469;BME280;68840;50.272;12.818;2023-11-21T04:42:06;95400;;;8.4;70.1
77469;BME280;68840;50.272;12.818;2023-11-21T04:44:05;95402;;;8.4;70.2
77469;BME280;68840;50.272;12.818;2023-11-21T04:46:06;95401;;;8.4;69.9
77469;BME280;68840;50.272;12.818;2023-11-21T04:48:06;95400;;;8.4;69.9
77469;BME280;68840;50.272;12.818;2023-11-21T04:50:06;95399;;;8.4;70.0
77469;BME280;68840;50.272;12.818;2023-11-21T04:52:05;95399;;;8.4;70.3
77469;BME280;68840;50.272;12.818;2023-11-21T04:54:05;95400;;;8.3;70.0
77469;BME280;68840;50.272;12.818;2023-11-21T04:56:06;95399;;;8.3;69.9
77469;BME280;68840;50.272;12.818;2023-11-21T04:58:05;95401;;;8.3;69.8
77469;BME280;68840;50.272;12.818;2023-11-21T05:00:06;95403;;;8.3;69.7
77469;BME280;68840;50.272;12.818;2023-11-21T05:02:05;95405;;;8.3;69.4
77469;BME280;68840;50.272;12.818;2023-11-21T05:04:06;95406;;;8.3;69.9
77469;BME280;68840;50.272;12.818;2023-11-21T05:06:05;95408;;;8.3;69.6
77469;BME280;68840;50.272;12.818;2023-11-21T05:08:05;95406;;;8.2;70.0
77469;BME280;68840;50.272;12.818;2023-11-21T05:10:10;95406;;;8.2;70.1
77469;BME280;68840;50.272;12.818;2023-11-21T05:12:05;95406;;;8.2;70.1
77469;BME280;68840;50.272;12.818;2023-11-21T05:14:05;95407;;;8.2;70.4
77469;BME280;68840;50.272;12.818;2023-11-21T05:16:06;95407;;;8.2;70.5
77469;BME280;68840;50.272;12.818;2023-11-21T05:18:06;95405;;;8.2;70.4
77469;BME280;68840;50.272;12.818;2023-11-21T05:20:08;95405;;;8.2;70.3
77469;BME280;68840;50.272;12.818;2023-11-21T05:22:05;95405;;;8.2;70.4
77469;BME280;68840;50.272;12.818;2023-11-21T05:24:06;95407;;;8.2;70.4
77469;BME280;68840;50.272;12.818;2023-11-21T05:26:05;95411;;;8.2;70.5
77469;BME280;68840;50.272;12.818;2023-11-21T05:28:06;95415;;;8.2;70.1
77469;BME280;68840;50.272;12.818;2023-11-21T05:30:06;95417;;;8.2;70.0
77469;BME280;68840;50.272;12.818;2023-11-21T05:32:05;95421;;;8.2;69.8
77469;BME280;68840;50.272;12.818;2023-11-21T05:34:05;95421;;;8.2;69.8
77469;BME280;68840;50.272;12.818;2023-11-21T05:36:07;95423;;;8.2;69.8
77469;BME280;68840;50.272;12.818;2023-11-21T05:38:05;95425;;;8.2;69.7
77469;BME280;68840;50.272;12.818;2023-11-21T05:40:06;95428;;;8.2;70.0
77469;BME280;68840;50.272;12.818;2023-11-21T05:42:06;95428;;;8.2;70.0
77469;BME280;68840;50.272;12.818;2023-11-21T05:44:05;95428;;;8.2;70.1
77469;BME280;68840;50.272;12.818;2023-11-21T05:46:07;95427;;;8.2;70.3
77469;BME280;68840;50.272;12.818;2023-11-21T05:48:06;95428;;;8.2;70.5
77469;BME280;68840;50.272;12.818;2023-11-21T05:50:06;95429;;;8.2;70.6
77469;BME280;68840;50.272;12.818;2023-11-21T05:52:05;95429;;;8.2;70.3
77469;BME280;68840;50.272;12.818;2023-11-21T05:54:05;95431;;;8.2;70.7
77469;BME280;68840;50.272;12.818;2023-11-21T05:56:05;95432;;;8.1;70.8
77469;BME280;68840;50.272;12.818;2023-11-21T05:58:05;95435;;;8.2;70.7
77469;BME280;68840;50.272;12.818;2023-11-21T06:00:11;95435;;;8.2;70.7
77469;BME280;68840;50.272;12.818;2023-11-21T06:02:05;95433;;;8.2;70.6
77469;BME280;68840;50.272;12.818;2023-11-21T06:04:05;95432;;;8.2;70.3
77469;BME280;68840;50.272;12.818;2023-11-21T06:06:06;95433;;;8.2;70.7
77469;BME280;68840;50.272;12.818;2023-11-21T06:08:06;95436;;;8.2;70.7
77469;BME280;68840;50.272;12.818;2023-11-21T06:10:07;95439;;;8.2;70.6
77469;BME280;68840;50.272;12.818;2023-11-21T06:12:06;95441;;;8.2;70.5
77469;BME280;68840;50.272;12.818;2023-11-21T06:14:07;95443;;;8.2;70.4
77469;BME280;68840;50.272;12.818;2023-11-21T06:16:06;95446;;;8.2;70.1
77469;BME280;68840;50.272;12.818;2023-11-21T06:18:09;95447;;;8.2;70.1
77469;BME280;68840;50.272;12.818;2023-11-21T06:20:09;95449;;;8.3;70.3
77469;BME280;68840;50.272;12.818;2023-11-21T06:22:05;95450;;;8.3;70.3
77469;BME280;68840;50.272;12.818;2023-11-21T06:24:05;95452;;;8.3;70.4
77469;BME280;68840;50.272;12.818;2023-11-21T06:26:06;95454;;;8.3;70.1
77469;BME280;68840;50.272;12.818;2023-11-21T06:28:05;95454;;;8.3;70.1
77469;BME280;68840;50.272;12.818;2023-11-21T06:30:07;95456;;;8.3;70.0
77469;BME280;68840;50.272;12.818;2023-11-21T06:32:05;95457;;;8.3;70.2
77469;BME280;68840;50.272;12.818;2023-11-21T06:34:05;95458;;;8.3;70.2
77469;BME280;68840;50.272;12.818;2023-11-21T06:36:06;95458;;;8.3;70.4
77469;BME280;68840;50.272;12.818;2023-11-21T06:38:05;95455;;;8.3;70.4
77469;BME280;68840;50.272;12.818;2023-11-21T06:40:06;95454;;;8.3;70.2
77469;BME280;68840;50.272;12.818;2023-11-21T06:42:05;95462;;;8.3;70.2
77469;BME280;68840;50.272;12.818;2023-11-21T06:44:05;95468;;;8.3;70.7
77469;BME280;68840;50.272;12.818;2023-11-21T06:46:05;95470;;;8.3;70.5
77469;BME280;68840;50.272;12.818;2023-11-21T06:48:05;95468;;;8.3;70.4
77469;BME280;68840;50.272;12.818;2023-11-21T06:50:06;95465;;;8.3;70.3
77469;BME280;68840;50.272;12.818;2023-11-21T06:52:05;95468;;;8.4;70.3
77469;BME280;68840;50.272;12.818;2023-11-21T06:54:06;95468;;;8.4;70.3
77469;BME280;68840;50.272;12.818;2023-11-21T06:56:15;95471;;;8.4;70.6
77469;BME280;68840;50.272;12.818;2023-11-21T06:58:05;95472;;;8.4;70.2
77469;BME280;68840;50.272;12.818;2023-11-21T07:00:09;95474;;;8.4;70.3
77469;BME280;68840;50.272;12.818;2023-11-21T07:02:06;95474;;;8.4;70.3
77469;BME280;68840;50.272;12.818;2023-11-21T07:04:05;95475;;;8.4;70.6
77469;BME280;68840;50.272;12.818;2023-11-21T07:06:05;95477;;;8.4;70.1
77469;BME280;68840;50.272;12.818;2023-11-21T07:08:05;95483;;;8.4;70.1
77469;BME280;68840;50.272;12.818;2023-11-21T07:10:06;95486;;;8.5;70.2
77469;BME280;68840;50.272;12.818;2023-11-21T07:12:07;95488;;;8.5;70.2
77469;BME280;68840;50.272;12.818;2023-11-21T07:14:07;95489;;;8.5;70.2
77469;BME280;68840;50.272;12.818;2023-11-21T07:16:05;95490;;;8.5;70.3
77469;BME280;68840;50.272;12.818;2023-11-21T07:18:07;95493;;;8.5;70.9
77469;BME280;68840;50.272;12.818;2023-11-21T07:20:06;95497;;;8.5;70.3
77469;BME280;68840;50.272;12.818;2023-11-21T07:22:05;95501;;;8.5;70.5
77469;BME280;68840;50.272;12.818;2023-11-21T07:24:07;95506;;;8.5;70.5
77469;BME280;68840;50.272;12.818;2023-11-21T07:26:09;95510;;;8.5;70.5
77469;BME280;68840;50.272;12.818;2023-11-21T07:28:05;95513;;;8.6;70.5
77469;BME280;68840;50.272;12.818;2023-11-21T07:30:08;95515;;;8.6;70.5
77469;BME280;68840;50.272;12.818;2023-11-21T07:32:05;95518;;;8.6;70.3
77469;BME280;68840;50.272;12.818;2023-11-21T07:34:05;95521;;;8.6;70.4
77469;BME280;68840;50.272;12.818;2023-11-21T07:36:06;95519;;;8.6;70.7
77469;BME280;68840;50.272;12.818;2023-11-21T07:38:05;95521;;;8.6;70.8
77469;BME280;68840;50.272;12.818;2023-11-21T07:40:08;95522;;;8.6;70.9
77469;BME280;68840;50.272;12.818;2023-11-21T07:42:05;95523;;;8.6;71.0
77469;BME280;68840;50.272;12.818;2023-11-21T07:44:06;95524;;;8.7;71.0
77469;BME280;68840;50.272;12.818;2023-11-21T07:46:05;95525;;;8.7;70.7
77469;BME280;68840;50.272;12.818;2023-11-21T07:48:06;95527;;;8.7;70.6
77469;BME280;68840;50.272;12.818;2023-11-21T07:50:07;95529;;;8.8;70.5
77469;BME280;68840;50.272;12.818;2023-11-21T07:52:05;95532;;;8.8;70.6
77469;BME280;68840;50.272;12.818;2023-11-21T07:54:05;95533;;;8.8;70.5
77469;BME280;68840;50.272;12.818;2023-11-21T07:56:07;95533;;;8.8;70.7
77469;BME280;68840;50.272;12.818;2023-11-21T07:58:05;95535;;;8.9;70.6
77469;BME280;68840;50.272;12.818;2023-11-21T08:00:09;95537;;;8.9;70.3
77469;BME280;68840;50.272;12.818;2023-11-21T08:02:05;95538;;;8.9;70.3
77469;BME280;68840;50.272;12.818;2023-11-21T08:04:06;95539;;;8.9;70.3
77469;BME280;68840;50.272;12.818;2023-11-21T08:06:06;95538;;;9.0;70.4
77469;BME280;68840;50.272;12.818;2023-11-21T08:08:05;95537;;;9.0;70.1
77469;BME280;68840;50.272;12.818;2023-11-21T08:10:06;95536;;;9.0;70.0
77469;BME280;68840;50.272;12.818;2023-11-21T08:12:05;95536;;;9.0;70.1
77469;BME280;68840;50.272;12.818;2023-11-21T08:14:05;95537;;;9.0;70.1
77469;BME280;68840;50.272;12.818;2023-11-21T08:16:07;95538;;;9.0;70.3
77469;BME280;68840;50.272;12.818;2023-11-21T08:18:07;95542;;;9.0;70.5
77469;BME280;68840;50.272;12.818;2023-11-21T08:20:08;95543;;;9.1;71.0
77469;BME280;68840;50.272;12.818;2023-11-21T08:22:07;95545;;;9.1;70.5
77469;BME280;68840;50.272;12.818;2023-11-21T08:24:06;95545;;;9.2;70.9
77469;BME280;68840;50.272;12.818;2023-11-21T08:26:06;95544;;;9.2;70.7
77469;BME280;68840;50.272;12.818;2023-11-21T08:28:05;95544;;;9.2;70.3
77469;BME280;68840;50.272;12.818;2023-11-21T08:30:07;95545;;;9.3;70.4
77469;BME280;68840;50.272;12.818;2023-11-21T08:32:05;95548;;;9.3;69.9
77469;BME280;68840;50.272;12.818;2023-11-21T08:34:05;95548;;;9.3;69.9
77469;BME280;68840;50.272;12.818;2023-11-21T08:36:07;95551;;;9.4;70.1
77469;BME280;68840;50.272;12.818;2023-11-21T08:38:05;95552;;;9.4;69.7
77469;BME280;68840;50.272;12.818;2023-11-21T08:40:09;95554;;;9.4;69.8
77469;BME280;68840;50.272;12.818;2023-11-21T08:42:05;95554;;;9.5;69.8
77469;BME280;68840;50.272;12.818;2023-11-21T08:44:06;95556;;;9.5;69.8
77469;BME280;68840;50.272;12.818;2023-11-21T08:46:05;95556;;;9.5;69.7
77469;BME280;68840;50.272;12.818;2023-11-21T08:48:05;95557;;;9.6;69.7
77469;BME280;68840;50.272;12.818;2023-11-21T08:50:07;95558;;;9.6;69.5
77469;BME280;68840;50.272;12.818;2023-11-21T08:52:06;95559;;;9.6;69.4
77469;BME280;68840;50.272;12.818;2023-11-21T08:54:08;95559;;;9.6;69.8
77469;BME280;68840;50.272;12.818;2023-11-21T08:56:06;95561;;;9.7;69.7
77469;BME280;68840;50.272;12.818;2023-11-21T08:58:06;95563;;;9.7;70.2
77469;BME280;68840;50.272;12.818;2023-11-21T09:00:10;95563;;;9.7;70.0
77469;BME280;68840;50.272;12.818;2023-11-21T09:02:05;95564;;;9.7;69.8
77469;BME280;68840;50.272;12.818;2023-11-21T09:04:05;95566;;;9.8;69.4
77469;BME280;68840;50.272;12.818;2023-11-21T09:06:05;95567;;;9.8;69.4
77469;BME280;68840;50.272;12.818;2023-11-21T09:08:05;95570;;;9.8;69.3
77469;BME280;68840;50.272;12.818;2023-11-21T09:10:08;95570;;;9.8;69.9
77469;BME280;68840;50.272;12.818;2023-11-21T09:12:06;95572;;;9.9;69.5
77469;BME280;68840;50.272;12.818;2023-11-21T09:14:05;95572;;;9.9;69.4
77469;BME280;68840;50.272;12.818;2023-11-21T09:16:05;95576;;;9.9;69.5
77469;BME280;68840;50.272;12.818;2023-11-21T09:18:05;95578;;;9.9;69.5
77469;BME280;68840;50.272;12.818;2023-11-21T09:20:06;95579;;;10.0;69.1
77469;BME280;68840;50.272;12.818;2023-11-21T09:22:06;95579;;;10.0;68.8
77469;BME280;68840;50.272;12.818;2023-11-21T09:24:06;95580;;;10.0;69.5
77469;BME280;68840;50.272;12.818;2023-11-21T09:26:05;95581;;;10.1;69.1
77469;BME280;68840;50.272;12.818;2023-11-21T09:28:07;95582;;;10.1;69.9
77469;BME280;68840;50.272;12.818;2023-11-21T09:30:09;95583;;;10.2;69.3
77469;BME280;68840;50.272;12.818;2023-11-21T09:32:06;95582;;;10.2;70.4
77469;BME280;68840;50.272;12.818;2023-11-21T09:34:06;95580;;;10.3;71.0
77469;BME280;68840;50.272;12.818;2023-11-21T09:36:06;95579;;;10.4;70.1
77469;BME280;68840;50.272;12.818;2023-11-21T09:38:10;95582;;;10.5;69.1
77469;BME280;68840;50.272;12.818;2023-11-21T09:40:12;95580;;;10.5;69.7
77469;BME280;68840;50.272;12.818;2023-11-21T09:42:11;95580;;;10.6;70.2
77469;BME280;68840;50.272;12.818;2023-11-21T09:44:11;95582;;;10.7;69.4
77469;BME280;68840;50.272;12.818;2023-11-21T09:46:10;95583;;;10.8;69.1
77469;BME280;68840;50.272;12.818;2023-11-21T09:48:06;95584;;;10.8;67.8
77469;BME280;68840;50.272;12.818;2023-11-21T09:50:07;95584;;;10.8;68.0
77469;BME280;68840;50.272;12.818;2023-11-21T09:52:07;95583;;;10.9;66.1
77469;BME280;68840;50.272;12.818;2023-11-21T09:54:08;95582;;;10.9;66.3
77469;BME280;68840;50.272;12.818;2023-11-21T09:56:06;95582;;;10.9;67.3
77469;BME280;68840;50.272;12.818;2023-11-21T09:58:07;95583;;;10.9;66.2
77469;BME280;68840;50.272;12.818;2023-11-21T10:00:12;95587;;;10.9;66.4
77469;BME280;68840;50.272;12.818;2023-11-21T10:02:07;95590;;;10.9;65.3
77469;BME280;68840;50.272;12.818;2023-11-21T10:04:11;95591;;;10.9;64.5
77469;BME280;68840;50.272;12.818;2023-11-21T10:06:06;95591;;;10.9;64.7
77469;BME280;68840;50.272;12.818;2023-11-21T10:08:08;95590;;;10.9;65.7
77469;BME280;68840;50.272;12.818;2023-11-21T10:10:08;95589;;;10.9;66.0
77469;BME280;68840;50.272;12.818;2023-11-21T10:12:08;95589;;;10.9;65.4
77469;BME280;68840;50.272;12.818;2023-11-21T10:14:05;95590;;;10.9;64.3
77469;BME280;68840;50.272;12.818;2023-11-21T10:16:07;95588;;;10.8;65.8
77469;BME280;68840;50.272;12.818;2023-11-21T10:18:07;95589;;;10.8;65.6
77469;BME280;68840;50.272;12.818;2023-11-21T10:20:11;95592;;;10.8;65.2
77469;BME280;68840;50.272;12.818;2023-11-21T10:22:06;95593;;;10.8;64.8
77469;BME280;68840;50.272;12.818;2023-11-21T10:24:06;95594;;;10.8;64.7
77469;BME280;68840;50.272;12.818;2023-11-21T10:26:06;95593;;;10.8;64.5
77469;BME280;68840;50.272;12.818;2023-11-21T10:28:06;95597;;;10.8;65.0
77469;BME280;68840;50.272;12.818;2023-11-21T10:30:08;95598;;;10.8;66.0
77469;BME280;68840;50.272;12.818;2023-11-21T10:32:05;95597;;;10.8;66.3
77469;BME280;68840;50.272;12.818;2023-11-21T10:34:21;95599;;;10.8;66.3
77469;BME280;68840;50.272;12.818;2023-11-21T10:36:06;95599;;;10.8;65.9
77469;BME280;68840;50.272;12.818;2023-11-21T10:38:05;95598;;;10.8;66.0
77469;BME280;68840;50.272;12.818;2023-11-21T10:40:06;95597;;;10.9;65.6
77469;BME280;68840;50.272;12.818;2023-11-21T10:42:08;95596;;;10.9;64.8
77469;BME280;68840;50.272;12.818;2023-11-21T10:44:08;95598;;;10.9;64.6
77469;BME280;68840;50.272;12.818;2023-11-21T10:46:05;95598;;;10.9;63.8
77469;BME280;68840;50.272;12.818;2023-11-21T10:48:08;95598;;;10.9;64.4
77469;BME280;68840;50.272;12.818;2023-11-21T10:50:05;95597;;;10.9;63.4
77469;BME280;68840;50.272;12.818;2023-11-21T10:52:05;95600;;;10.8;64.4
77469;BME280;68840;50.272;12.818;2023-11-21T10:54:05;95600;;;10.8;63.3
77469;BME280;68840;50.272;12.818;2023-11-21T10:56:08;95600;;;10.8;63.7
77469;BME280;68840;50.272;12.818;2023-11-21T10:58:05;95603;;;10.8;63.3
77469;BME280;68840;50.272;12.818;2023-11-21T11:00:06;95603;;;10.7;63.3
77469;BME280;68840;50.272;12.818;2023-11-21T11:02:21;95602;;;10.7;62.1
77469;BME280;68840;50.272;12.818;2023-11-21T11:04:09;95602;;;10.7;63.3
77469;BME280;68840;50.272;12.818;2023-11-21T11:06:11;95602;;;10.6;62.8
77469;BME280;68840;50.272;12.818;2023-11-21T11:08:08;95602;;;10.6;62.6
77469;BME280;68840;50.272;12.818;2023-11-21T11:10:08;95603;;;10.6;63.6
77469;BME280;68840;50.272;12.818;2023-11-21T11:12:06;95604;;;10.6;64.4
77469;BME280;68840;50.272;12.818;2023-11-21T11:14:06;95605;;;10.6;63.8
77469;BME280;68840;50.272;12.818;2023-11-21T11:16:08;95605;;;10.6;62.6
77469;BME280;68840;50.272;12.818;2023-11-21T11:18:06;95606;;;10.6;62.9
77469;BME280;68840;50.272;12.818;2023-11-21T11:20:11;95607;;;10.6;62.7